createdAt,value
2018-09-27T00:01:26.224Z,5.60
2018-09-27T00:03:54.365Z,5.70
2018-09-27T00:06:22.382Z,5.60
2018-09-27T00:08:50.495Z,5.50
2018-09-27T00:16:16.834Z,5.40
2018-09-27T00:18:44.855Z,5.50
2018-09-27T00:21:12.994Z,5.70
2018-09-27T00:23:41.044Z,5.60
2018-09-27T00:26:09.152Z,5.60
2018-09-27T00:28:37.111Z,5.60
2018-09-27T00:31:05.685Z,5.60
2018-09-27T00:33:33.973Z,5.60
2018-09-27T00:36:02.033Z,5.50
2018-09-27T00:38:30.077Z,5.50
2018-09-27T00:40:58.548Z,5.50
2018-09-27T00:43:26.541Z,5.40
2018-09-27T00:45:54.575Z,5.40
2018-09-27T00:48:22.690Z,5.50
2018-09-27T00:50:50.775Z,5.50
2018-09-27T00:55:46.915Z,5.50
2018-09-27T00:58:14.950Z,5.40
2018-09-27T01:03:14.137Z,5.30
2018-09-27T01:05:43.195Z,5.20
2018-09-27T01:08:11.204Z,5.20
2018-09-27T01:10:39.303Z,5.20
2018-09-27T01:25:27.700Z,5.10
2018-09-27T01:27:56.787Z,5.00
2018-09-27T01:30:24.813Z,4.90
2018-09-27T01:32:52.831Z,5.00
2018-09-27T01:35:20.950Z,5.10
2018-09-27T01:37:48.988Z,4.90
2018-09-27T01:40:17.091Z,4.80
2018-09-27T01:42:45.076Z,4.70
2018-09-27T01:45:13.298Z,4.80
2018-09-27T01:47:41.604Z,4.80
2018-09-27T01:50:09.668Z,4.60
2018-09-27T01:52:37.755Z,4.40
2018-09-27T01:55:05.809Z,4.40
2018-09-27T01:57:33.868Z,4.40
2018-09-27T02:00:01.958Z,4.30
2018-09-27T02:02:30.012Z,4.30
2018-09-27T02:04:58.088Z,4.40
2018-09-27T02:07:26.260Z,4.40
2018-09-27T02:09:54.529Z,4.40
2018-09-27T02:12:22.630Z,4.50
2018-09-27T02:17:18.756Z,4.60
2018-09-27T02:19:46.820Z,4.50
2018-09-27T02:22:14.919Z,4.40
2018-09-27T02:24:43.026Z,4.50
2018-09-27T02:27:11.032Z,4.20
2018-09-27T02:32:07.202Z,4.00
2018-09-27T02:34:35.220Z,4.10
2018-09-27T02:39:31.375Z,3.90
2018-09-27T02:41:59.547Z,3.80
2018-09-27T02:44:27.827Z,4.00
2018-09-27T02:46:55.908Z,4.00
2018-09-27T02:49:23.872Z,3.90
2018-09-27T02:51:52.079Z,3.90
2018-09-27T02:54:20.139Z,4.00
2018-09-27T02:56:48.173Z,3.90
2018-09-27T02:59:16.248Z,3.90
2018-09-27T03:01:44.413Z,3.90
2018-09-27T03:04:12.473Z,4.00
2018-09-27T03:06:40.480Z,4.00
2018-09-27T03:09:10.549Z,4.00
2018-09-27T03:11:39.640Z,4.00
2018-09-27T03:14:07.749Z,3.90
2018-09-27T03:16:35.852Z,3.90
2018-09-27T03:19:03.957Z,3.80
2018-09-27T03:21:31.992Z,3.80
2018-09-27T03:24:00.076Z,3.80
2018-09-27T03:31:24.276Z,3.70
2018-09-27T03:33:52.349Z,3.80
2018-09-27T03:36:20.412Z,3.70
2018-09-27T03:38:48.534Z,3.60
2018-09-27T03:41:16.524Z,3.60
2018-09-27T03:43:44.630Z,3.70
2018-09-27T03:48:41.777Z,3.50
2018-09-27T03:51:10.071Z,3.30
2018-09-27T04:03:09.313Z,2.80
2018-09-27T04:05:37.354Z,2.90
2018-09-27T04:08:05.421Z,2.90
2018-09-27T04:13:01.563Z,3.00
2018-09-27T04:15:30.072Z,3.00
2018-09-27T04:17:58.274Z,2.90
2018-09-27T04:20:26.320Z,2.90
2018-09-27T04:22:54.407Z,2.90
2018-09-27T04:25:22.529Z,2.80
2018-09-27T04:27:50.665Z,2.70
2018-09-27T04:30:18.606Z,2.60
2018-09-27T04:32:48.815Z,2.70
2018-09-27T04:35:16.964Z,2.80
2018-09-27T04:40:13.305Z,2.80
2018-09-27T04:42:41.436Z,2.90
2018-09-27T04:45:09.540Z,2.90
2018-09-27T04:50:05.744Z,3.00
2018-09-27T04:55:02.718Z,3.20
2018-09-27T04:57:30.754Z,3.30
2018-09-27T04:59:58.909Z,3.30
2018-09-27T05:02:27.003Z,3.40
2018-09-27T05:04:54.982Z,3.40
2018-09-27T05:09:51.140Z,3.40
2018-09-27T05:12:19.295Z,3.50
2018-09-27T05:14:47.633Z,3.50
2018-09-27T05:19:43.876Z,3.70
2018-09-27T05:22:11.816Z,3.60
2018-09-27T05:24:39.900Z,3.70
2018-09-27T05:27:08.452Z,3.90
2018-09-27T05:29:36.656Z,4.10
2018-09-27T05:32:05.061Z,4.40
2018-09-27T05:34:33.155Z,4.50
2018-09-27T05:37:01.181Z,4.70
2018-09-27T05:39:29.234Z,4.70
2018-09-27T05:41:57.292Z,4.80
2018-09-27T05:44:25.355Z,4.80
2018-09-27T05:46:53.454Z,4.90
2018-09-27T05:49:22.781Z,5.10
2018-09-27T05:51:50.824Z,5.30
2018-09-27T05:56:47.018Z,6.30
2018-09-27T06:01:43.113Z,7.40
2018-09-27T06:04:11.117Z,7.70
2018-09-27T06:06:39.239Z,8.00
2018-09-27T06:09:09.956Z,8.30
2018-09-27T06:11:38.255Z,8.30
2018-09-27T06:14:07.721Z,8.70
2018-09-27T06:19:05.332Z,9.60
2018-09-27T06:21:33.571Z,10.60
2018-09-27T06:24:01.604Z,11.80
2018-09-27T06:26:29.674Z,12.90
2018-09-27T06:28:58.609Z,14.10
2018-09-27T06:31:26.720Z,15.20
2018-09-27T06:36:22.895Z,16.30
2018-09-27T06:38:50.886Z,17.20
2018-09-27T06:41:19.052Z,17.70
2018-09-27T06:46:16.348Z,19.10
2018-09-27T06:48:44.461Z,19.80
2018-09-27T06:53:40.764Z,20.50
2018-09-27T06:56:09.013Z,20.90
2018-09-27T06:58:37.345Z,21.50
2018-09-27T07:03:33.521Z,22.20
2018-09-27T07:08:29.939Z,23.00
2018-09-27T07:13:26.044Z,24.30
2018-09-27T07:18:22.224Z,24.40
2018-09-27T07:20:51.542Z,25.30
2018-09-27T07:23:19.581Z,25.70
2018-09-27T07:25:47.631Z,26.30
2018-09-27T07:33:11.990Z,26.30
2018-09-27T07:35:40.229Z,27.20
2018-09-27T07:38:08.295Z,27.50
2018-09-27T07:45:33.760Z,28.10
2018-09-27T07:48:01.850Z,28.20
2018-09-27T07:50:30.256Z,28.50
2018-09-27T07:57:54.431Z,28.80
2018-09-27T08:00:22.522Z,28.30
2018-09-27T08:05:19.269Z,27.50
2018-09-27T08:07:47.337Z,27.00
2018-09-27T08:10:15.373Z,26.40
2018-09-27T08:12:43.484Z,26.90
2018-09-27T08:15:11.549Z,27.20
2018-09-27T08:17:39.663Z,26.90
2018-09-27T08:20:07.813Z,27.80
2018-09-27T08:22:39.414Z,27.70
2018-09-27T08:25:08.380Z,27.50
2018-09-27T08:27:36.598Z,28.00
2018-09-27T08:32:35.752Z,28.20
2018-09-27T08:35:04.153Z,28.40
2018-09-27T08:37:32.193Z,28.50
2018-09-27T08:40:00.280Z,29.00
2018-09-27T08:44:57.458Z,27.30
2018-09-27T08:47:25.420Z,27.00
2018-09-27T08:49:53.447Z,27.20
2018-09-27T08:52:21.508Z,27.40
2018-09-27T08:54:49.564Z,27.20
2018-09-27T08:59:46.732Z,25.60
2018-09-27T09:02:15.100Z,26.30
2018-09-27T09:07:11.792Z,25.90
2018-09-27T09:09:39.920Z,25.50
2018-09-27T09:12:07.867Z,25.40
2018-09-27T09:14:36.013Z,24.30
2018-09-27T09:17:04.211Z,24.30
2018-09-27T09:19:32.492Z,24.10
2018-09-27T09:22:00.514Z,25.40
2018-09-27T09:24:28.701Z,26.00
2018-09-27T09:26:56.982Z,27.30
2018-09-27T09:31:53.141Z,27.30
2018-09-27T09:36:49.116Z,26.80
2018-09-27T09:39:17.346Z,27.20
2018-09-27T09:41:45.380Z,27.80
2018-09-27T09:44:14.169Z,28.30
2018-09-27T09:46:42.558Z,27.80
2018-09-27T09:51:40.780Z,27.80
2018-09-27T09:54:08.775Z,27.40
2018-09-27T09:59:05.001Z,26.00
2018-09-27T10:01:33.022Z,25.30
2018-09-27T10:06:29.162Z,26.50
2018-09-27T10:08:57.318Z,26.70
2018-09-27T10:13:53.422Z,26.30
2018-09-27T10:18:53.473Z,26.30
2018-09-27T10:21:34.534Z,26.90
2018-09-27T10:24:03.449Z,27.30
2018-09-27T10:26:31.640Z,27.20
2018-09-27T10:29:00.082Z,28.20
2018-09-27T10:31:28.093Z,28.20
2018-09-27T10:36:24.138Z,28.10
2018-09-27T10:41:20.275Z,25.40
2018-09-27T10:43:48.420Z,25.60
2018-09-27T10:46:16.416Z,26.00
2018-09-27T10:48:44.521Z,26.00
2018-09-27T10:51:12.694Z,25.30
2018-09-27T10:53:40.979Z,24.80
2018-09-27T10:56:09.748Z,24.90
2018-09-27T10:58:38.484Z,24.20
2018-09-27T11:01:07.603Z,24.00
2018-09-27T11:11:02.716Z,23.30
2018-09-27T11:13:30.852Z,23.20
2018-09-27T11:15:59.146Z,22.50
2018-09-27T11:18:27.240Z,22.20
2018-09-27T11:20:55.296Z,21.70
2018-09-27T11:23:23.409Z,22.30
2018-09-27T11:25:51.448Z,22.80
2018-09-27T11:28:19.504Z,23.50
2018-09-27T11:33:19.977Z,23.10
2018-09-27T11:35:48.028Z,22.30
2018-09-27T11:38:16.111Z,22.30
2018-09-27T11:40:44.140Z,22.40
2018-09-27T11:43:12.208Z,22.70
2018-09-27T11:48:08.356Z,22.70
2018-09-27T11:50:36.526Z,23.10
2018-09-27T11:53:04.860Z,23.20
2018-09-27T11:58:01.268Z,22.30
2018-09-27T12:00:29.390Z,22.30
2018-09-27T12:02:57.476Z,21.50
2018-09-27T12:05:25.537Z,21.00
2018-09-27T12:07:54.872Z,20.90
2018-09-27T12:10:23.171Z,20.50
2018-09-27T12:12:51.216Z,20.50
2018-09-27T12:15:19.339Z,20.40
2018-09-27T12:17:47.384Z,20.80
2018-09-27T12:20:15.448Z,21.00
2018-09-27T12:25:12.508Z,21.50
2018-09-27T12:27:40.860Z,21.60
2018-09-27T12:30:11.207Z,21.90
2018-09-27T12:32:39.508Z,22.10
2018-09-27T12:37:35.611Z,22.30
2018-09-27T12:42:32.220Z,22.80
2018-09-27T12:45:00.262Z,23.00
2018-09-27T12:47:28.311Z,23.20
2018-09-27T12:52:24.771Z,23.10
2018-09-27T12:54:53.075Z,23.00
2018-09-27T12:57:21.144Z,23.00
2018-09-27T12:59:49.195Z,22.30
2018-09-27T13:02:21.440Z,22.00
2018-09-27T13:07:18.311Z,22.40
2018-09-27T13:09:46.579Z,22.70
2018-09-27T13:12:14.469Z,23.00
2018-09-27T13:17:10.362Z,23.50
2018-09-27T13:19:38.550Z,23.70
2018-09-27T13:22:06.408Z,23.90
2018-09-27T13:24:36.717Z,23.90
2018-09-27T13:27:05.071Z,23.90
2018-09-27T13:29:33.154Z,24.00
2018-09-27T13:34:29.236Z,24.30
2018-09-27T13:36:57.489Z,24.40
2018-09-27T13:41:54.431Z,24.10
2018-09-27T13:44:22.453Z,24.10
2018-09-27T13:46:50.536Z,24.10
2018-09-27T13:49:18.600Z,24.20
2018-09-27T13:51:46.667Z,24.30
2018-09-27T13:54:14.776Z,24.20
2018-09-27T13:56:42.881Z,24.10
2018-09-27T13:59:11.260Z,24.00
2018-09-27T14:01:39.607Z,23.60
2018-09-27T14:04:07.623Z,23.70
2018-09-27T14:06:36.026Z,23.70
2018-09-27T14:09:05.891Z,23.60
2018-09-27T14:14:02.110Z,23.70
2018-09-27T14:16:30.192Z,23.60
2018-09-27T14:18:59.455Z,23.20
2018-09-27T14:21:27.532Z,22.90
2018-09-27T14:23:55.592Z,22.80
2018-09-27T14:26:24.017Z,22.80
2018-09-27T14:33:53.150Z,22.10
2018-09-27T14:36:21.177Z,22.00
2018-09-27T14:38:49.398Z,22.00
2018-09-27T14:41:17.647Z,22.00
2018-09-27T14:43:45.785Z,22.10
2018-09-27T14:46:14.074Z,22.00
2018-09-27T14:48:42.168Z,22.00
2018-09-27T14:56:08.436Z,22.00
2018-09-27T14:58:36.640Z,21.90
2018-09-27T15:01:04.788Z,21.80
2018-09-27T15:03:33.045Z,21.60
2018-09-27T15:08:29.211Z,21.50
2018-09-27T15:10:57.221Z,21.20
2018-09-27T15:13:25.260Z,21.20
2018-09-27T15:15:53.425Z,21.00
2018-09-27T15:18:21.516Z,21.00
2018-09-27T15:20:49.799Z,20.90
2018-09-27T15:25:45.976Z,20.60
2018-09-27T15:28:14.048Z,20.40
2018-09-27T15:30:42.174Z,20.20
2018-09-27T15:33:10.188Z,20.00
2018-09-27T15:38:06.177Z,19.80
2018-09-27T15:50:04.280Z,19.00
2018-09-27T15:52:32.342Z,18.90
2018-09-27T15:55:00.425Z,18.60
2018-09-27T15:59:57.509Z,18.20
2018-09-27T16:04:53.608Z,17.90
2018-09-27T16:07:21.679Z,17.60
2018-09-27T16:09:49.768Z,17.60
2018-09-27T16:12:17.948Z,17.50
2018-09-27T16:14:46.281Z,17.40
2018-09-27T16:17:14.286Z,17.20
2018-09-27T16:19:42.497Z,16.80
2018-09-27T16:24:38.527Z,16.50
2018-09-27T16:29:34.442Z,16.00
2018-09-27T16:32:02.737Z,15.90
2018-09-27T16:34:30.748Z,15.80
2018-09-27T16:36:58.980Z,15.80
2018-09-27T16:39:27.219Z,15.80
2018-09-27T16:44:23.397Z,15.40
2018-09-27T16:46:51.377Z,15.10
2018-09-27T16:49:19.513Z,15.10
2018-09-27T16:51:47.548Z,15.10
2018-09-27T16:56:44.930Z,14.80
2018-09-27T16:59:13.124Z,14.80
2018-09-27T17:01:41.444Z,14.60
2018-09-27T17:04:09.416Z,14.30
2018-09-27T17:06:38.492Z,14.20
2018-09-27T17:09:07.541Z,14.30
2018-09-27T17:11:35.906Z,14.40
2018-09-27T17:14:04.249Z,14.20
2018-09-27T17:19:00.378Z,13.80
2018-09-27T17:21:28.485Z,13.70
2018-09-27T17:23:56.834Z,13.50
2018-09-27T17:26:24.864Z,13.30
2018-09-27T17:28:52.960Z,13.40
2018-09-27T17:31:20.988Z,13.20
2018-09-27T17:33:49.136Z,13.00
2018-09-27T17:36:17.204Z,12.80
2018-09-27T17:46:09.384Z,12.40
2018-09-27T17:56:01.772Z,12.30
2018-09-27T18:00:57.919Z,12.40
2018-09-27T18:03:25.994Z,12.40
2018-09-27T18:05:54.066Z,12.40
2018-09-27T18:08:22.110Z,12.20
2018-09-27T18:10:50.122Z,12.10
2018-09-27T18:13:18.257Z,11.90
2018-09-27T18:15:46.304Z,12.00
2018-09-27T18:20:42.435Z,11.90
2018-09-27T18:23:11.855Z,11.90
2018-09-27T18:28:08.076Z,11.70
2018-09-27T18:30:36.287Z,11.70
2018-09-27T18:33:04.300Z,11.60
2018-09-27T18:38:01.426Z,11.80
2018-09-27T18:40:29.479Z,11.80
2018-09-27T18:42:57.523Z,11.90
2018-09-27T18:45:25.688Z,12.00
2018-09-27T18:47:54.025Z,11.80
2018-09-27T18:50:22.078Z,11.80
2018-09-27T18:52:51.103Z,11.80
2018-09-27T18:57:47.252Z,11.50
2018-09-27T19:00:15.281Z,11.20
2018-09-27T19:05:13.588Z,11.10
2018-09-27T19:12:37.539Z,11.50
2018-09-27T19:15:05.858Z,11.40
2018-09-27T19:17:33.887Z,11.50
2018-09-27T19:20:02.025Z,11.40
2018-09-27T19:22:30.134Z,11.40
2018-09-27T19:27:26.061Z,11.20
2018-09-27T19:29:54.309Z,11.20
2018-09-27T19:37:18.496Z,11.50
2018-09-27T19:42:14.725Z,11.40
2018-09-27T19:44:43.002Z,11.60
2018-09-27T19:47:11.112Z,11.50
2018-09-27T19:49:39.123Z,11.30
2018-09-27T19:57:03.410Z,10.90
2018-09-27T19:59:31.427Z,10.90
2018-09-27T20:06:55.608Z,11.10
2018-09-27T20:09:23.735Z,11.00
2018-09-27T20:16:47.961Z,10.70
2018-09-27T20:19:15.971Z,10.60
2018-09-27T20:24:11.973Z,10.40
2018-09-27T20:26:40.296Z,10.50
2018-09-27T20:29:09.175Z,10.40
2018-09-27T20:31:37.307Z,10.20
2018-09-27T20:36:35.673Z,9.90
2018-09-27T20:39:05.324Z,10.00
2018-09-27T20:41:33.533Z,9.90
2018-09-27T20:44:01.677Z,9.80
2018-09-27T20:46:29.711Z,9.80
2018-09-27T20:48:57.824Z,9.70
2018-09-27T20:51:26.447Z,9.70
2018-09-27T20:56:22.606Z,9.70
2018-09-27T20:58:50.636Z,9.80
2018-09-27T21:03:46.789Z,9.60
2018-09-27T21:06:14.882Z,9.70
2018-09-27T21:08:42.961Z,9.60
2018-09-27T21:11:11.084Z,9.60
2018-09-27T21:16:07.146Z,9.70
2018-09-27T21:21:03.311Z,9.60
2018-09-27T21:23:31.412Z,9.40
2018-09-27T21:25:59.428Z,9.50
2018-09-27T21:28:27.504Z,9.40
2018-09-27T21:30:55.576Z,9.60
2018-09-27T21:33:23.712Z,9.70
2018-09-27T21:35:51.732Z,9.50
2018-09-27T21:40:47.911Z,9.30
2018-09-27T21:45:44.039Z,9.20
2018-09-27T21:48:12.145Z,9.20
2018-09-27T21:50:40.237Z,9.10
2018-09-27T21:53:08.518Z,9.00
2018-09-27T21:55:36.648Z,8.80
2018-09-27T21:58:04.700Z,8.80
2018-09-27T22:00:32.737Z,8.70
2018-09-27T22:03:00.978Z,8.70
2018-09-27T22:05:29.238Z,8.70
2018-09-27T22:07:57.272Z,8.60
2018-09-27T22:10:25.606Z,8.60
2018-09-27T22:12:55.929Z,8.60
2018-09-27T22:15:23.960Z,8.50
2018-09-27T22:17:52.030Z,8.60
2018-09-27T22:20:20.101Z,8.50
2018-09-27T22:22:48.063Z,8.40
2018-09-27T22:25:16.248Z,8.20
2018-09-27T22:27:44.340Z,8.20
2018-09-27T22:30:12.425Z,8.10
2018-09-27T22:40:04.915Z,7.80
2018-09-27T22:42:33.061Z,7.80
2018-09-27T22:47:29.179Z,7.80
2018-09-27T22:49:59.383Z,7.70
2018-09-27T22:52:27.490Z,7.70
2018-09-27T22:54:55.539Z,7.70
2018-09-27T22:57:23.725Z,7.80
2018-09-27T22:59:52.000Z,7.70
2018-09-27T23:02:20.101Z,7.60
2018-09-27T23:04:48.188Z,7.60
2018-09-27T23:07:19.572Z,7.60
2018-09-27T23:09:47.712Z,7.60
2018-09-27T23:12:15.739Z,7.60
2018-09-27T23:14:43.743Z,7.70
2018-09-27T23:22:07.912Z,7.40
2018-09-27T23:24:36.075Z,7.50
2018-09-27T23:29:32.215Z,7.60
2018-09-27T23:32:00.345Z,7.60
2018-09-27T23:34:28.388Z,7.70
2018-09-27T23:39:24.516Z,7.70
2018-09-27T23:41:52.595Z,7.60
2018-09-27T23:44:20.652Z,7.70
2018-09-27T23:46:48.633Z,7.70
2018-09-27T23:54:12.981Z,7.50
2018-09-27T23:56:41.006Z,7.40
2018-09-27T23:59:09.069Z,7.50
